Time;durP1;ratioP1;P1;durP2;ratioP2;P2;SDS_P1;SDS_P2;PMS_P1;PMS_P2;Temp;Humidity;BMP_temperature;BMP_pressure;BME280_temperature;BME280_humidity;BME280_pressure;Samples;Min_cycle;Max_cycle;Signal;HPM_P1;HPM_P2
2023/10/24 00:00:15;;;;;;;4.53;1.35;;;;;10.90;93257.00;;;;7400544;19;20850;-76
2023/10/24 00:03:02;;;;;;;4.32;1.35;;;;;10.80;93258.00;;;;7398952;19;20149;-76
2023/10/24 00:05:36;;;;;;;5.93;1.77;;;;;10.70;93257.00;;;;7399098;19;20486;-76
2023/10/24 00:08:04;;;;;;;4.38;1.90;;;;;10.70;93253.00;;;;7398786;19;20133;-78
2023/10/24 00:10:39;;;;;;;3.83;1.52;;;;;10.60;93251.00;;;;7399632;19;20638;-77
2023/10/24 00:13:15;;;;;;;4.03;1.50;;;;;10.60;93250.00;;;;7399104;19;20136;-75
2023/10/24 00:15:56;;;;;;;4.15;1.60;;;;;10.50;93257.00;;;;7396212;19;20167;-76
2023/10/24 00:18:30;;;;;;;3.55;1.52;;;;;10.40;93249.00;;;;7400442;19;20154;-74
2023/10/24 00:21:07;;;;;;;6.22;1.58;;;;;10.50;93254.00;;;;7400201;19;20595;-75
2023/10/24 00:23:37;;;;;;;6.28;1.77;;;;;10.40;93264.00;;;;7399304;19;20137;-73
2023/10/24 00:26:06;;;;;;;6.65;2.03;;;;;10.40;93270.00;;;;7400528;19;20143;-75
2023/10/24 00:28:40;;;;;;;4.55;1.67;;;;;10.30;93272.00;;;;7396439;19;20612;-77
2023/10/24 00:31:14;;;;;;;4.25;1.92;;;;;10.30;93262.00;;;;7396550;19;20144;-75
2023/10/24 00:33:50;;;;;;;2.60;1.70;;;;;10.30;93263.00;;;;7400027;19;20133;-76
2023/10/24 00:36:18;;;;;;;4.47;1.63;;;;;10.30;93273.00;;;;7397464;19;20174;-76
2023/10/24 00:38:53;;;;;;;3.15;1.55;;;;;10.40;93267.00;;;;7397656;19;20166;-75
2023/10/24 00:41:29;;;;;;;5.57;1.90;;;;;10.40;93275.00;;;;7397558;19;20144;-77
2023/10/24 00:44:03;;;;;;;2.55;1.48;;;;;10.40;93271.00;;;;7398039;19;20281;-75
2023/10/24 00:46:39;;;;;;;3.38;1.80;;;;;10.40;93266.00;;;;7396847;19;20211;-75
2023/10/24 00:49:09;;;;;;;5.22;2.33;;;;;10.30;93268.00;;;;7396739;19;20156;-77
2023/10/24 00:51:37;;;;;;;6.43;1.90;;;;;10.30;93254.00;;;;7397216;19;20133;-77
2023/10/24 00:54:12;;;;;;;1.95;1.30;;;;;10.40;93237.00;;;;7396757;19;20203;-77
2023/10/24 00:56:47;;;;;;;3.40;1.80;;;;;10.70;93238.00;;;;7397638;19;20212;-76
2023/10/24 00:59:25;;;;;;;2.25;1.70;;;;;10.60;93217.00;;;;7397907;19;20516;-74
2023/10/24 01:01:59;;;;;;;5.07;1.55;;;;;10.80;93220.00;;;;7394715;19;20193;-78
2023/10/24 01:04:36;;;;;;;2.53;1.10;;;;;11.00;93210.00;;;;7396207;19;20152;-79
2023/10/24 01:07:07;;;;;;;5.85;1.67;;;;;11.10;93207.00;;;;7397706;19;20141;-79
2023/10/24 01:09:41;;;;;;;2.13;1.05;;;;;11.20;93215.00;;;;7394045;19;20548;-78
2023/10/24 01:12:10;;;;;;;6.32;1.40;;;;;11.50;93209.00;;;;7397679;19;20129;-78
2023/10/24 01:14:46;;;;;;;3.47;1.13;;;;;11.70;93217.00;;;;7396346;19;20133;-78
2023/10/24 01:17:27;;;;;;;5.65;2.00;;;;;11.40;93213.00;;;;7393422;19;20145;-79
2023/10/24 01:20:03;;;;;;;3.20;2.20;;;;;11.10;93209.00;;;;7395695;19;20612;-77
2023/10/24 01:22:39;;;;;;;4.60;1.50;;;;;11.10;93207.00;;;;7396029;19;20474;-76
2023/10/24 01:25:13;;;;;;;8.48;2.00;;;;;11.00;93217.00;;;;7396652;19;20137;-76
2023/10/24 01:27:53;;;;;;;4.03;2.15;;;;;10.90;93218.00;;;;7396560;19;20141;-79
2023/10/24 01:30:22;;;;;;;4.72;2.22;;;;;10.80;93226.00;;;;7397266;19;20144;-78
2023/10/24 01:33:11;;;;;;;2.47;1.33;;;;;10.80;93219.00;;;;7395437;19;20188;-79
2023/10/24 01:35:39;;;;;;;1.40;1.10;;;;;11.20;93213.00;;;;7396274;19;20218;-76
2023/10/24 01:38:14;;;;;;;4.95;1.38;;;;;11.60;93202.00;;;;7396465;19;20153;-75
2023/10/24 01:40:48;;;;;;;5.35;1.48;;;;;11.70;93216.00;;;;7397498;19;20565;-76
2023/10/24 01:43:23;;;;;;;6.60;1.40;;;;;11.80;93212.00;;;;7394604;19;20486;-78
2023/10/24 01:45:58;;;;;;;3.22;1.27;;;;;11.90;93183.00;;;;7395827;19;20143;-76
2023/10/24 01:48:32;;;;;;;4.45;1.30;;;;;11.90;93180.00;;;;7395903;19;20144;-78
2023/10/24 01:51:07;;;;;;;5.53;1.25;;;;;12.10;93190.00;;;;7395390;19;20129;-76
2023/10/24 01:53:42;;;;;;;3.42;1.02;;;;;12.10;93195.00;;;;7395986;19;20174;-77
2023/10/24 01:56:16;;;;;;;4.57;1.40;;;;;12.10;93196.00;;;;7396424;19;20129;-77
2023/10/24 01:58:50;;;;;;;2.42;1.02;;;;;12.30;93198.00;;;;7396225;19;20213;-78
2023/10/24 02:01:24;;;;;;;5.10;1.02;;;;;12.30;93196.00;;;;7394534;19;20499;-79
2023/10/24 02:03:54;;;;;;;3.63;1.23;;;;;12.40;93198.00;;;;7394184;19;20167;-78
2023/10/24 02:06:28;;;;;;;2.85;1.10;;;;;12.30;93193.00;;;;7394567;19;20137;-78
2023/10/24 02:09:02;;;;;;;4.05;0.98;;;;;12.20;93207.00;;;;7394150;19;20137;-77
2023/10/24 02:11:43;;;;;;;6.25;0.85;;;;;12.20;93206.00;;;;7394422;19;20149;-79
2023/10/24 02:14:18;;;;;;;1.50;0.80;;;;;12.10;93219.00;;;;7396507;19;20158;-77
2023/10/24 02:16:46;;;;;;;2.53;0.85;;;;;12.00;93216.00;;;;7393980;19;20619;-75
2023/10/24 02:19:26;;;;;;;3.10;1.10;;;;;12.00;93201.00;;;;7395826;19;20203;-76
2023/10/24 02:21:55;;;;;;;2.58;1.05;;;;;11.80;93200.00;;;;7396708;19;20135;-76
2023/10/24 02:24:31;;;;;;;3.08;1.00;;;;;12.00;93195.00;;;;7395519;19;20207;-79
2023/10/24 02:26:59;;;;;;;1.80;1.02;;;;;12.20;93179.00;;;;7393453;19;20517;-76
2023/10/24 02:29:33;;;;;;;6.18;1.20;;;;;12.10;93185.00;;;;7394047;19;20140;-75
2023/10/24 02:32:02;;;;;;;2.45;1.00;;;;;12.00;93189.00;;;;7400402;19;20633;-76
2023/10/24 02:34:34;;;;;;;2.83;1.20;;;;;11.70;93184.00;;;;7403709;19;20121;-77
2023/10/24 02:37:08;;;;;;;4.60;1.10;;;;;11.70;93186.00;;;;7402303;19;20144;-76
2023/10/24 02:39:44;;;;;;;2.55;1.20;;;;;11.50;93201.00;;;;7402018;19;20489;-76
2023/10/24 02:42:18;;;;;;;3.95;1.42;;;;;11.20;93212.00;;;;7402893;19;20653;-76
2023/10/24 02:44:49;;;;;;;3.30;1.60;;;;;11.00;93206.00;;;;7403378;19;20615;-77
2023/10/24 02:47:24;;;;;;;3.60;1.50;;;;;11.00;93216.00;;;;7401510;19;20145;-77
2023/10/24 02:49:54;;;;;;;2.92;1.80;;;;;11.00;93226.00;;;;7400239;19;20158;-77
2023/10/24 02:52:48;;;;;;;2.80;1.40;;;;;10.90;93221.00;;;;7402402;19;20231;-76
2023/10/24 02:55:16;;;;;;;2.50;1.20;;;;;11.00;93213.00;;;;7400629;19;20149;-75
2023/10/24 02:57:50;;;;;;;4.68;1.48;;;;;11.10;93217.00;;;;7400008;19;20157;-76
2023/10/24 03:00:18;;;;;;;2.75;1.23;;;;;11.20;93216.00;;;;7402119;19;20601;-76
2023/10/24 03:02:47;;;;;;;2.67;1.30;;;;;11.30;93218.00;;;;7397736;19;20204;-76
2023/10/24 03:05:22;;;;;;;3.10;1.10;;;;;11.30;93221.00;;;;7400931;19;20964;-75
2023/10/24 03:07:50;;;;;;;3.95;1.02;;;;;11.30;93241.00;;;;7402361;19;20137;-76
2023/10/24 03:10:25;;;;;;;1.02;0.95;;;;;11.40;93247.00;;;;7399980;19;20544;-76
2023/10/24 03:13:03;;;;;;;2.55;1.38;;;;;11.40;93245.00;;;;7399417;19;20148;-77
2023/10/24 03:15:39;;;;;;;2.65;0.82;;;;;11.50;93238.00;;;;7400063;19;20565;-76
2023/10/24 03:18:19;;;;;;;1.73;1.13;;;;;11.40;93233.00;;;;7400015;19;20152;-75
2023/10/24 03:20:47;;;;;;;3.03;1.00;;;;;11.40;93231.00;;;;7399320;19;20529;-75
2023/10/24 03:23:24;;;;;;;5.68;0.90;;;;;11.40;93221.00;;;;7400582;19;20628;-78
2023/10/24 03:25:52;;;;;;;3.00;1.00;;;;;11.30;93235.00;;;;7399641;19;20589;-76
2023/10/24 03:28:29;;;;;;;3.58;1.33;;;;;11.50;93236.00;;;;7401047;19;20137;-76
2023/10/24 03:31:04;;;;;;;3.38;1.10;;;;;11.50;93228.00;;;;7401180;19;20204;-77
2023/10/24 03:33:41;;;;;;;5.05;1.10;;;;;11.50;93228.00;;;;7400387;19;20143;-75
2023/10/24 03:36:13;;;;;;;3.72;1.45;;;;;11.60;93226.00;;;;7401283;19;20626;-77
2023/10/24 03:38:48;;;;;;;3.10;1.02;;;;;11.60;93219.00;;;;7399272;19;20449;-77
2023/10/24 03:41:16;;;;;;;3.80;1.20;;;;;11.50;93213.00;;;;7398723;19;20133;-74
2023/10/24 03:43:48;;;;;;;4.05;1.33;;;;;11.50;93216.00;;;;7398395;19;20450;-76
2023/10/24 03:46:23;;;;;;;1.73;0.93;;;;;11.50;93213.00;;;;7400532;19;20133;-76
2023/10/24 03:48:57;;;;;;;2.67;1.20;;;;;11.40;93207.00;;;;7397842;19;20142;-75
2023/10/24 03:51:32;;;;;;;2.58;1.27;;;;;11.40;93199.00;;;;7399967;19;20136;-75
2023/10/24 03:54:00;;;;;;;1.55;1.00;;;;;11.40;93199.00;;;;7398725;19;20647;-76
2023/10/24 03:56:30;;;;;;;2.80;1.10;;;;;11.30;93186.00;;;;7400315;19;20125;-74
2023/10/24 03:59:04;;;;;;;4.05;1.15;;;;;11.40;93180.00;;;;7398858;19;20155;-74
2023/10/24 04:01:41;;;;;;;3.92;1.00;;;;;11.50;93168.00;;;;7398519;19;20141;-75
2023/10/24 04:04:16;;;;;;;4.93;0.85;;;;;11.50;93159.00;;;;7399243;19;20158;-74
2023/10/24 04:06:44;;;;;;;2.85;1.00;;;;;11.60;93151.00;;;;7398939;19;20133;-75
2023/10/24 04:09:18;;;;;;;1.38;0.93;;;;;11.50;93152.00;;;;7397810;19;20159;-76
2023/10/24 04:12:12;;;;;;;2.78;0.80;;;;;11.40;93140.00;;;;7400236;19;20627;-76
2023/10/24 04:14:47;;;;;;;3.53;1.05;;;;;11.30;93144.00;;;;7399984;19;20145;-76
2023/10/24 04:17:28;;;;;;;1.40;1.10;;;;;11.20;93138.00;;;;7395799;19;20189;-75
2023/10/24 04:20:06;;;;;;;1.23;0.90;;;;;11.20;93122.00;;;;7397564;19;20140;-77
2023/10/24 04:22:36;;;;;;;2.88;0.90;;;;;11.50;93129.00;;;;7399766;19;20146;-76
2023/10/24 04:25:10;;;;;;;2.78;0.85;;;;;11.50;93115.00;;;;7398367;19;20777;-76
2023/10/24 04:27:45;;;;;;;3.25;1.00;;;;;11.70;93128.00;;;;7399566;19;20152;-77
2023/10/24 04:30:20;;;;;;;2.03;0.68;;;;;11.60;93151.00;;;;7395603;19;20595;-76
2023/10/24 04:32:55;;;;;;;1.17;0.80;;;;;11.40;93172.00;;;;7398144;19;20589;-75
2023/10/24 04:35:30;;;;;;;3.80;1.20;;;;;11.20;93190.00;;;;7396872;19;20177;-76
2023/10/24 04:37:57;;;;;;;5.03;1.20;;;;;11.20;93180.00;;;;7397884;19;20170;-76
2023/10/24 04:40:35;;;;;;;4.72;1.58;;;;;11.10;93183.00;;;;7397849;19;20136;-78
2023/10/24 04:43:10;;;;;;;1.42;1.10;;;;;11.10;93174.00;;;;7397861;19;20716;-77
2023/10/24 04:45:46;;;;;;;3.00;1.25;;;;;11.10;93173.00;;;;7397966;19;20156;-76
2023/10/24 04:48:21;;;;;;;2.95;1.52;;;;;11.10;93176.00;;;;7398435;19;20602;-76
2023/10/24 04:50:58;;;;;;;1.92;1.05;;;;;11.00;93153.00;;;;7394949;19;20707;-76
2023/10/24 04:53:33;;;;;;;2.60;1.42;;;;;11.00;93141.00;;;;7395136;19;20136;-77
2023/10/24 04:56:07;;;;;;;4.97;1.17;;;;;11.00;93127.00;;;;7396473;19;20137;-74
2023/10/24 04:58:35;;;;;;;2.47;1.10;;;;;10.90;93127.00;;;;7397321;19;20621;-75
2023/10/24 05:01:10;;;;;;;1.45;0.93;;;;;10.90;93123.00;;;;7396960;19;20145;-75
2023/10/24 05:03:38;;;;;;;2.70;1.08;;;;;10.90;93128.00;;;;7396712;19;20154;-77
2023/10/24 05:06:13;;;;;;;2.00;1.20;;;;;10.90;93127.00;;;;7373313;19;20619;-76
2023/10/24 05:08:52;;;;;;;5.53;1.20;;;;;10.90;93111.00;;;;7383773;19;20205;-76
2023/10/24 05:11:29;;;;;;;3.50;1.00;;;;;11.00;93088.00;;;;7384907;19;20191;-77
2023/10/24 05:14:04;;;;;;;2.95;0.80;;;;;11.10;93096.00;;;;7386636;19;23033;-73
2023/10/24 05:16:40;;;;;;;1.00;0.88;;;;;11.00;93085.00;;;;7383916;19;20197;-75
2023/10/24 05:19:22;;;;;;;1.85;1.58;;;;;10.90;93109.00;;;;7387889;19;20556;-74
2023/10/24 05:21:52;;;;;;;4.82;1.60;;;;;10.80;93110.00;;;;7386361;19;20140;-75
2023/10/24 05:24:32;;;;;;;4.38;1.67;;;;;10.80;93103.00;;;;7384238;19;20163;-73
2023/10/24 05:27:00;;;;;;;4.85;1.77;;;;;10.70;93108.00;;;;7383095;19;20173;-76
2023/10/24 05:29:37;;;;;;;3.30;1.63;;;;;10.80;93110.00;;;;7386334;19;20148;-75
2023/10/24 05:32:17;;;;;;;3.90;1.63;;;;;10.70;93108.00;;;;7385096;19;20136;-76
2023/10/24 05:34:52;;;;;;;5.40;1.65;;;;;10.70;93114.00;;;;7384109;19;20141;-73
2023/10/24 05:37:27;;;;;;;2.47;1.40;;;;;10.70;93102.00;;;;7383761;19;20148;-73
2023/10/24 05:40:04;;;;;;;3.33;1.73;;;;;10.60;93104.00;;;;7385095;19;20620;-75
2023/10/24 05:42:41;;;;;;;5.30;1.60;;;;;10.60;93100.00;;;;7385300;19;20129;-80
2023/10/24 05:45:09;;;;;;;3.30;1.40;;;;;10.70;93105.00;;;;7385215;19;20621;-76
2023/10/24 05:47:38;;;;;;;2.92;1.25;;;;;10.70;93104.00;;;;7383507;19;20637;-74
2023/10/24 05:50:13;;;;;;;2.53;1.42;;;;;10.70;93104.00;;;;7383005;19;20168;-77
2023/10/24 05:52:47;;;;;;;4.82;1.80;;;;;10.70;93107.00;;;;7383397;19;20713;-76
2023/10/24 05:55:15;;;;;;;4.55;1.77;;;;;10.80;93099.00;;;;7383530;19;20184;-74
2023/10/24 05:57:49;;;;;;;3.38;1.50;;;;;10.80;93098.00;;;;7382859;19;20153;-74
2023/10/24 06:00:17;;;;;;;4.43;1.70;;;;;10.90;93092.00;;;;7384438;19;20140;-76
2023/10/24 06:02:52;;;;;;;9.57;1.70;;;;;11.00;93090.00;;;;7383600;19;20156;-75
2023/10/24 06:05:20;;;;;;;3.88;1.48;;;;;11.10;93094.00;;;;7381005;19;20149;-76
2023/10/24 06:07:54;;;;;;;2.10;1.50;;;;;11.10;93093.00;;;;7383792;19;20137;-76
2023/10/24 06:10:28;;;;;;;3.42;1.60;;;;;11.10;93109.00;;;;7385218;19;20132;-78
2023/10/24 06:13:03;;;;;;;3.22;1.58;;;;;11.10;93115.00;;;;7384123;19;20161;-77
2023/10/24 06:15:31;;;;;;;3.20;1.40;;;;;11.10;93120.00;;;;7383289;19;20159;-76
2023/10/24 06:17:59;;;;;;;2.53;1.30;;;;;11.20;93128.00;;;;7384511;19;20160;-74
2023/10/24 06:20:38;;;;;;;6.88;1.45;;;;;11.20;93139.00;;;;7383672;19;20128;-74
2023/10/24 06:23:15;;;;;;;4.15;1.60;;;;;11.30;93142.00;;;;7383999;19;21342;-74
2023/10/24 06:25:50;;;;;;;1.70;1.02;;;;;11.30;93147.00;;;;7383969;19;20564;-76
2023/10/24 06:28:25;;;;;;;3.38;1.50;;;;;11.20;93153.00;;;;7382559;19;20128;-74
2023/10/24 06:30:58;;;;;;;3.15;1.40;;;;;11.20;93159.00;;;;7379559;19;20156;-73
2023/10/24 06:33:33;;;;;;;5.55;1.42;;;;;11.20;93156.00;;;;7383579;19;20577;-75
2023/10/24 06:36:06;;;;;;;3.05;1.30;;;;;11.20;93157.00;;;;7384468;19;20593;-77
2023/10/24 06:38:40;;;;;;;1.90;1.45;;;;;11.20;93152.00;;;;7381913;19;20148;-75
2023/10/24 06:41:09;;;;;;;2.50;1.27;;;;;11.20;93138.00;;;;7381867;19;20148;-73
2023/10/24 06:43:37;;;;;;;4.10;1.40;;;;;11.20;93134.00;;;;7382623;19;20604;-73
2023/10/24 06:46:12;;;;;;;15.50;2.03;;;;;11.20;93131.00;;;;7382143;19;20653;-77
2023/10/24 06:48:46;;;;;;;14.05;2.03;;;;;11.10;93125.00;;;;7382743;19;20585;-74
2023/10/24 06:51:20;;;;;;;8.25;1.50;;;;;11.10;93120.00;;;;7381481;19;20133;-77
2023/10/24 06:53:49;;;;;;;5.72;1.42;;;;;11.10;93116.00;;;;7380406;19;20474;-74
2023/10/24 06:56:23;;;;;;;2.30;1.33;;;;;11.10;93133.00;;;;7379297;19;20153;-76
2023/10/24 06:58:57;;;;;;;3.70;1.63;;;;;11.10;93127.00;;;;7381898;19;20132;-76
2023/10/24 07:01:32;;;;;;;1.50;1.40;;;;;11.10;93122.00;;;;7382333;19;20178;-73
2023/10/24 07:04:06;;;;;;;5.57;1.60;;;;;11.10;93115.00;;;;7380243;19;20580;-75
2023/10/24 07:06:42;;;;;;;4.85;1.50;;;;;11.20;93109.00;;;;7380359;19;20163;-76
2023/10/24 07:09:17;;;;;;;7.20;1.55;;;;;11.20;93117.00;;;;7382525;19;20132;-73
2023/10/24 07:11:45;;;;;;;3.22;1.40;;;;;11.20;93122.00;;;;7380280;19;20617;-76
2023/10/24 07:14:20;;;;;;;1.90;1.40;;;;;11.20;93122.00;;;;7380618;19;20185;-75
2023/10/24 07:17:01;;;;;;;2.35;1.17;;;;;11.20;93123.00;;;;7384684;19;20180;-75
2023/10/24 07:19:35;;;;;;;2.35;1.15;;;;;11.20;93129.00;;;;7387983;19;20136;-78
2023/10/24 07:22:11;;;;;;;3.30;1.35;;;;;11.10;93119.00;;;;7387211;19;20612;-76
2023/10/24 07:24:45;;;;;;;3.00;1.42;;;;;11.20;93129.00;;;;7388803;19;20695;-75
2023/10/24 07:27:22;;;;;;;1.45;1.20;;;;;11.20;93127.00;;;;7389225;19;20153;-77
2023/10/24 07:29:57;;;;;;;2.92;1.13;;;;;11.20;93133.00;;;;7388042;19;20133;-76
2023/10/24 07:32:33;;;;;;;6.75;1.33;;;;;11.20;93133.00;;;;7387009;19;20128;-74
2023/10/24 07:35:09;;;;;;;2.75;1.20;;;;;11.20;93136.00;;;;7388877;19;20140;-79
2023/10/24 07:37:37;;;;;;;3.60;1.60;;;;;11.20;93144.00;;;;7386372;19;20212;-78
2023/10/24 07:40:15;;;;;;;2.50;1.50;;;;;11.30;93141.00;;;;7384177;19;20641;-75
2023/10/24 07:42:43;;;;;;;5.63;1.40;;;;;11.20;93137.00;;;;7385609;19;20192;-80
2023/10/24 07:45:17;;;;;;;2.13;1.50;;;;;11.20;93143.00;;;;7388378;19;20128;-76
2023/10/24 07:47:51;;;;;;;4.28;1.33;;;;;11.30;93140.00;;;;7385801;19;20128;-77
2023/10/24 07:50:32;;;;;;;3.88;1.55;;;;;11.30;93140.00;;;;7386045;19;20132;-78
2023/10/24 07:53:09;;;;;;;3.17;1.17;;;;;11.30;93144.00;;;;7388134;19;20197;-76
2023/10/24 07:55:44;;;;;;;1.90;1.05;;;;;11.30;93135.00;;;;7380341;19;20172;-78
2023/10/24 07:58:12;;;;;;;1.17;1.05;;;;;11.30;93136.00;;;;7386007;19;20554;-79
2023/10/24 08:00:47;;;;;;;2.10;1.30;;;;;11.40;93137.00;;;;7387996;19;20132;-78
2023/10/24 08:03:16;;;;;;;4.05;1.33;;;;;11.30;93135.00;;;;7388335;19;20492;-77
2023/10/24 08:05:45;;;;;;;2.75;1.40;;;;;11.30;93140.00;;;;7387415;19;20152;-77
2023/10/24 08:08:19;;;;;;;4.43;1.63;;;;;11.40;93138.00;;;;7387287;19;20152;-78
2023/10/24 08:10:47;;;;;;;2.78;1.50;;;;;11.30;93144.00;;;;7385246;19;20606;-74
2023/10/24 08:13:22;;;;;;;4.03;1.80;;;;;11.30;93145.00;;;;7387000;19;20147;-77
2023/10/24 08:16:02;;;;;;;2.80;1.42;;;;;11.30;93143.00;;;;7386484;19;20651;-77
2023/10/24 08:18:38;;;;;;;3.22;1.30;;;;;11.40;93147.00;;;;7387978;19;20154;-78
2023/10/24 08:21:12;;;;;;;4.28;1.55;;;;;11.30;93154.00;;;;7385962;19;20154;-77
2023/10/24 08:23:40;;;;;;;2.75;1.50;;;;;11.30;93159.00;;;;7388544;19;20136;-78
2023/10/24 08:26:15;;;;;;;1.85;1.23;;;;;11.30;93163.00;;;;7387074;19;20170;-77
2023/10/24 08:28:50;;;;;;;2.70;1.23;;;;;11.40;93163.00;;;;7384782;19;20132;-76
2023/10/24 08:31:24;;;;;;;1.60;1.00;;;;;11.40;93154.00;;;;7384489;19;20152;-77
2023/10/24 08:34:16;;;;;;;3.75;1.45;;;;;11.40;93157.00;;;;7385859;19;20585;-76
2023/10/24 08:36:50;;;;;;;3.67;1.30;;;;;11.50;93157.00;;;;7387590;19;20580;-75
2023/10/24 08:39:24;;;;;;;2.63;1.40;;;;;11.50;93155.00;;;;7386093;19;20211;-76
2023/10/24 08:42:00;;;;;;;1.65;1.30;;;;;11.50;93151.00;;;;7386910;19;20171;-77
2023/10/24 08:44:36;;;;;;;3.17;1.30;;;;;11.50;93156.00;;;;7385982;19;20655;-75
2023/10/24 08:47:05;;;;;;;2.67;1.23;;;;;11.50;93147.00;;;;7383575;19;20163;-76
2023/10/24 08:49:40;;;;;;;2.30;1.25;;;;;11.60;93141.00;;;;7385200;19;20266;-77
2023/10/24 08:52:11;;;;;;;2.75;1.60;;;;;11.70;93131.00;;;;7383775;19;20152;-78
2023/10/24 08:55:03;;;;;;;1.63;1.35;;;;;11.70;93125.00;;;;7385681;19;20577;-77
2023/10/24 08:57:42;;;;;;;5.90;1.48;;;;;11.80;93120.00;;;;7386239;19;20128;-77
2023/10/24 09:00:19;;;;;;;1.35;1.25;;;;;11.80;93112.00;;;;7385276;19;20132;-76
2023/10/24 09:02:47;;;;;;;2.85;1.13;;;;;11.90;93115.00;;;;7387297;19;20161;-76
2023/10/24 09:05:29;;;;;;;4.10;1.30;;;;;11.90;93120.00;;;;7386877;19;20135;-75
2023/10/24 09:08:08;;;;;;;3.70;1.17;;;;;11.80;93119.00;;;;7384134;19;20190;-78
2023/10/24 09:10:38;;;;;;;4.15;1.38;;;;;11.80;93109.00;;;;7384544;19;20137;-77
2023/10/24 09:13:18;;;;;;;2.30;1.33;;;;;11.90;93107.00;;;;7385751;19;20163;-76
2023/10/24 09:16:07;;;;;;;4.28;1.55;;;;;11.90;93115.00;;;;7383579;19;20145;-76
2023/10/24 09:18:48;;;;;;;3.30;1.20;;;;;12.00;93118.00;;;;7383980;19;20158;-77
2023/10/24 09:21:23;;;;;;;1.75;1.10;;;;;11.80;93107.00;;;;7385293;19;20480;-77
2023/10/24 09:23:57;;;;;;;2.05;0.98;;;;;11.90;93110.00;;;;7386651;19;20133;-78
2023/10/24 09:26:59;;;;;;;1.75;0.98;;;;;11.70;93114.00;;;;7384085;19;20137;-74
2023/10/24 09:29:40;;;;;;;4.00;1.00;;;;;11.70;93118.00;;;;7384756;19;20162;-77
2023/10/24 09:32:16;;;;;;;1.60;0.98;;;;;11.60;93125.00;;;;7383602;19;20148;-75
2023/10/24 09:34:48;;;;;;;1.75;1.10;;;;;11.70;93129.00;;;;7384073;19;20208;-77
2023/10/24 09:37:23;;;;;;;2.00;1.25;;;;;11.70;93118.00;;;;7385316;19;20157;-76
2023/10/24 09:40:03;;;;;;;1.35;1.10;;;;;11.80;93122.00;;;;7384282;19;20128;-75
2023/10/24 09:42:38;;;;;;;2.53;1.50;;;;;11.80;93130.00;;;;7383128;19;20154;-77
2023/10/24 09:45:15;;;;;;;2.03;1.67;;;;;11.90;93126.00;;;;7384823;19;20148;-77
2023/10/24 09:47:44;;;;;;;1.17;1.08;;;;;11.90;93127.00;;;;7384602;19;20147;-74
2023/10/24 09:50:20;;;;;;;3.58;2.17;;;;;11.90;93134.00;;;;7382850;19;20499;-76
2023/10/24 09:52:55;;;;;;;1.63;1.33;;;;;11.90;93140.00;;;;7385682;19;20592;-77
2023/10/24 09:55:25;;;;;;;1.42;1.33;;;;;11.90;93143.00;;;;7384077;19;20624;-77
2023/10/24 09:58:07;;;;;;;5.00;2.45;;;;;11.90;93135.00;;;;7384717;19;20588;-77
2023/10/24 10:00:42;;;;;;;16.05;7.88;;;;;11.90;93134.00;;;;7382405;19;20479;-77
2023/10/24 10:03:25;;;;;;;4.95;2.70;;;;;12.00;93132.00;;;;7384403;19;20148;-77
2023/10/24 10:05:58;;;;;;;6.85;4.45;;;;;11.90;93128.00;;;;7382272;19;20140;-77
2023/10/24 10:08:41;;;;;;;6.80;4.38;;;;;11.90;93134.00;;;;7382932;19;20251;-76
2023/10/24 10:11:14;;;;;;;5.28;2.70;;;;;12.00;93127.00;;;;7383852;19;20982;-76
2023/10/24 10:13:53;;;;;;;5.68;1.50;;;;;12.10;93130.00;;;;7384261;19;20599;-75
2023/10/24 10:16:30;;;;;;;2.75;1.30;;;;;12.00;93129.00;;;;7382970;19;20689;-77
2023/10/24 10:19:28;;;;;;;2.10;1.38;;;;;12.00;93115.00;;;;7382963;19;20225;-77
2023/10/24 10:22:53;;;;;;;1.65;1.23;;;;;12.00;93115.00;;;;7382525;19;20670;-75
2023/10/24 10:25:57;;;;;;;18.55;8.43;;;;;11.90;93120.00;;;;7382648;19;20176;-77
2023/10/24 10:29:00;;;;;;;2.67;2.33;;;;;11.80;93115.00;;;;7383285;19;20152;-76
2023/10/24 10:32:25;;;;;;;15.18;3.30;;;;;11.70;93106.00;;;;7381800;19;20144;-77
2023/10/24 10:35:20;;;;;;;1.67;1.50;;;;;11.70;93100.00;;;;7380033;19;20704;-77
2023/10/24 10:38:03;;;;;;;12.18;3.42;;;;;11.70;93101.00;;;;7385000;19;20132;-77
2023/10/24 10:40:38;;;;;;;10.63;2.05;;;;;11.70;93110.00;;;;7384431;19;20132;-77
2023/10/24 10:43:30;;;;;;;1.30;1.20;;;;;11.60;93095.00;;;;7385027;19;20171;-77
2023/10/24 10:46:20;;;;;;;1.70;1.60;;;;;11.60;93094.00;;;;7382855;19;20133;-76
2023/10/24 10:49:03;;;;;;;1.58;1.45;;;;;11.50;93085.00;;;;7383542;19;20151;-79
2023/10/24 10:51:40;;;;;;;2.17;1.70;;;;;11.70;93090.00;;;;7386668;19;20232;-78
2023/10/24 10:54:23;;;;;;;2.22;1.48;;;;;11.60;93085.00;;;;7390455;19;20169;-78
2023/10/24 10:57:03;;;;;;;2.85;1.50;;;;;11.70;93075.00;;;;7389058;19;20149;-77
2023/10/24 11:00:07;;;;;;;1.92;1.33;;;;;11.70;93073.00;;;;7388572;19;21456;-80
2023/10/24 11:03:28;;;;;;;1.13;1.02;;;;;11.60;93080.00;;;;7390593;19;20161;-76
2023/10/24 11:06:09;;;;;;;2.95;0.93;;;;;11.40;93076.00;;;;7389990;19;20153;-76
2023/10/24 11:09:10;;;;;;;0.60;0.60;;;;;11.30;93075.00;;;;7388354;19;20161;-77
2023/10/24 11:11:40;;;;;;;17.95;9.50;;;;;11.30;93072.00;;;;7388107;19;20200;-74
2023/10/24 11:14:21;;;;;;;11.95;9.68;;;;;11.30;93080.00;;;;7387566;19;20156;-79
2023/10/24 11:16:53;;;;;;;2.78;1.20;;;;;11.30;93073.00;;;;7390932;19;20573;-79
2023/10/24 11:19:34;;;;;;;0.98;0.90;;;;;11.30;93077.00;;;;7388518;19;20144;-76
2023/10/24 11:22:09;;;;;;;5.05;1.27;;;;;11.20;93076.00;;;;7389500;19;20616;-76
2023/10/24 11:24:46;;;;;;;2.88;0.80;;;;;11.20;93081.00;;;;7389535;19;20132;-77
2023/10/24 11:27:15;;;;;;;0.50;0.50;;;;;11.20;93071.00;;;;7391450;19;20580;-77
2023/10/24 11:29:49;;;;;;;1.50;1.40;;;;;11.10;93079.00;;;;7388901;19;20140;-78
2023/10/24 11:32:24;;;;;;;1.40;1.30;;;;;11.10;93070.00;;;;7386433;19;20177;-79
2023/10/24 11:34:54;;;;;;;1.60;0.60;;;;;11.00;93061.00;;;;7390837;19;20129;-78
2023/10/24 11:37:29;;;;;;;2.83;2.63;;;;;11.00;93056.00;;;;7388635;19;20169;-77
2023/10/24 11:40:03;;;;;;;0.63;0.40;;;;;10.90;93047.00;;;;7388845;19;20616;-79
2023/10/24 11:42:41;;;;;;;0.90;0.90;;;;;11.00;93052.00;;;;7388129;19;20152;-77
2023/10/24 11:45:09;;;;;;;0.90;0.70;;;;;11.00;93046.00;;;;7390878;19;20262;-76
2023/10/24 11:47:44;;;;;;;1.23;0.65;;;;;11.00;93052.00;;;;7389463;19;20132;-78
2023/10/24 11:50:13;;;;;;;0.85;0.55;;;;;11.00;93047.00;;;;7389355;19;20140;-76
2023/10/24 11:52:49;;;;;;;0.50;0.50;;;;;11.00;93037.00;;;;7388753;19;20172;-77
2023/10/24 11:55:17;;;;;;;0.52;0.35;;;;;11.00;93038.00;;;;7388225;19;20222;-78
2023/10/24 11:57:54;;;;;;;0.47;0.47;;;;;11.10;93034.00;;;;7389837;19;20154;-76
2023/10/24 12:00:31;;;;;;;1.63;0.50;;;;;11.10;93041.00;;;;7387864;19;20566;-76
2023/10/24 12:03:07;;;;;;;1.48;0.60;;;;;11.20;93032.00;;;;7386489;19;20562;-79
2023/10/24 12:05:36;;;;;;;0.90;0.60;;;;;11.20;93025.00;;;;7388432;19;20143;-77
2023/10/24 12:08:06;;;;;;;0.82;0.40;;;;;11.20;93029.00;;;;7389318;19;20136;-76
2023/10/24 12:10:51;;;;;;;0.75;0.50;;;;;11.30;93033.00;;;;7385784;19;20159;-77
2023/10/24 12:13:29;;;;;;;1.75;0.65;;;;;11.30;93022.00;;;;7386848;19;20458;-77
2023/10/24 12:16:04;;;;;;;1.13;0.57;;;;;11.40;93028.00;;;;7388298;19;20228;-77
2023/10/24 12:18:45;;;;;;;1.20;0.50;;;;;11.40;93036.00;;;;7386729;19;20168;-77
2023/10/24 12:21:19;;;;;;;1.58;0.60;;;;;11.40;93032.00;;;;7387538;19;20140;-79
2023/10/24 12:23:47;;;;;;;2.17;0.50;;;;;11.30;93031.00;;;;7387211;19;20204;-76
2023/10/24 12:26:23;;;;;;;0.30;0.30;;;;;11.30;93037.00;;;;7387723;19;20156;-78
2023/10/24 12:28:54;;;;;;;0.73;0.40;;;;;11.30;93026.00;;;;7384993;19;20456;-76
2023/10/24 12:31:28;;;;;;;0.73;0.30;;;;;11.40;93031.00;;;;7385466;19;20152;-78
2023/10/24 12:33:56;;;;;;;0.50;0.50;;;;;11.40;93031.00;;;;7388532;19;20189;-77
2023/10/24 12:36:32;;;;;;;1.83;0.52;;;;;11.40;93024.00;;;;7386929;19;20200;-80
2023/10/24 12:39:07;;;;;;;0.30;0.20;;;;;11.40;93021.00;;;;7385522;19;20163;-79
2023/10/24 12:41:40;;;;;;;0.32;0.30;;;;;11.40;93016.00;;;;7385445;19;20145;-77
2023/10/24 12:44:17;;;;;;;0.40;0.40;;;;;11.40;93020.00;;;;7385929;19;20156;-78
2023/10/24 12:46:45;;;;;;;0.40;0.30;;;;;11.50;93020.00;;;;7386939;19;20660;-77
2023/10/24 12:49:19;;;;;;;0.20;0.20;;;;;11.50;93019.00;;;;7385934;19;20628;-76
2023/10/24 12:51:59;;;;;;;0.80;0.40;;;;;11.50;93011.00;;;;7386751;19;20160;-75
2023/10/24 12:54:28;;;;;;;3.13;0.68;;;;;11.50;93013.00;;;;7386550;19;20557;-75
2023/10/24 12:57:02;;;;;;;0.32;0.32;;;;;11.50;93009.00;;;;7386174;19;20607;-76
2023/10/24 12:59:36;;;;;;;0.70;0.63;;;;;11.30;93010.00;;;;7386063;19;20165;-79